Time;durP1;ratioP1;P1;durP2;ratioP2;P2;SDS_P1;SDS_P2;PMS_P1;PMS_P2;Temp;Humidity;BMP_temperature;BMP_pressure;BME280_temperature;BME280_humidity;BME280_pressure;Samples;Min_cycle;Max_cycle;Signal;HPM_P1;HPM_P2
2022/04/04 00:01:06;;;;;;;0.10;0.10;;;0.80;99.90;;;;;;5007445;28;20080;-65
2022/04/04 00:03:31;;;;;;;0.10;0.10;;;0.70;99.90;;;;;;5008132;28;20036;-67
2022/04/04 00:05:57;;;;;;;0.10;0.10;;;0.70;99.90;;;;;;5008457;28;20030;-67
2022/04/04 00:08:23;;;;;;;0.10;0.10;;;0.70;99.90;;;;;;5004151;28;20030;-68
2022/04/04 00:10:48;;;;;;;0.10;0.10;;;0.80;99.90;;;;;;5003291;28;20578;-69
2022/04/04 00:13:14;;;;;;;0.10;0.10;;;0.80;99.90;;;;;;4999606;28;20038;-65
2022/04/04 00:15:41;;;;;;;0.10;0.10;;;0.80;99.90;;;;;;4999227;28;20061;-65
2022/04/04 00:18:11;;;;;;;0.10;0.10;;;0.80;99.90;;;;;;5001995;28;20112;-66
2022/04/04 00:20:40;;;;;;;0.10;0.10;;;0.80;99.90;;;;;;5002565;28;20028;-67
2022/04/04 00:23:12;;;;;;;0.10;0.10;;;0.70;99.90;;;;;;5006961;28;20013;-69
2022/04/04 00:25:42;;;;;;;0.10;0.10;;;0.70;99.90;;;;;;5001336;28;20501;-66
2022/04/04 00:28:09;;;;;;;0.20;0.20;;;0.70;99.90;;;;;;4999627;28;20239;-65
2022/04/04 00:30:35;;;;;;;0.10;0.10;;;0.70;99.90;;;;;;5004784;28;20030;-68
2022/04/04 00:33:00;;;;;;;0.10;0.10;;;0.70;99.90;;;;;;5003875;28;20404;-67
2022/04/04 00:35:26;;;;;;;0.10;0.10;;;0.60;99.90;;;;;;5002595;28;20030;-67
2022/04/04 00:37:55;;;;;;;0.10;0.10;;;0.70;99.90;;;;;;4999245;28;20030;-65
2022/04/04 00:40:20;;;;;;;0.10;0.10;;;0.70;99.90;;;;;;5006509;28;20053;-68
2022/04/04 00:42:46;;;;;;;0.10;0.10;;;0.70;99.90;;;;;;5010052;28;20486;-65
2022/04/04 00:45:11;;;;;;;0.10;0.10;;;0.60;99.90;;;;;;5007558;28;20022;-65
2022/04/04 00:47:37;;;;;;;0.10;0.10;;;0.70;99.90;;;;;;5006474;28;20064;-65
2022/04/04 00:50:03;;;;;;;0.10;0.10;;;0.60;99.90;;;;;;5003003;28;20054;-66
2022/04/04 00:52:29;;;;;;;0.10;0.10;;;0.50;99.90;;;;;;5005020;28;20022;-67
2022/04/04 00:54:55;;;;;;;0.10;0.10;;;0.50;99.90;;;;;;5008938;28;20531;-69
2022/04/04 00:57:21;;;;;;;0.10;0.10;;;0.60;99.90;;;;;;5016726;28;20489;-65
2022/04/04 00:59:48;;;;;;;0.20;0.20;;;0.50;99.90;;;;;;5009898;28;20073;-66
2022/04/04 01:02:14;;;;;;;0.10;0.10;;;0.50;99.90;;;;;;5007028;28;20029;-66
2022/04/04 01:04:39;;;;;;;0.10;0.10;;;0.60;99.90;;;;;;5009809;28;20033;-69
2022/04/04 01:07:05;;;;;;;0.10;0.10;;;0.60;99.90;;;;;;5005048;28;20025;-67
2022/04/04 01:09:31;;;;;;;0.10;0.10;;;0.50;99.90;;;;;;5002757;28;20041;-64
2022/04/04 01:12:10;;;;;;;0.10;0.10;;;0.60;99.90;;;;;;5003368;28;20495;-64
2022/04/04 01:14:47;;;;;;;0.10;0.10;;;0.60;99.90;;;;;;5005665;28;20524;-65
2022/04/04 01:17:15;;;;;;;0.10;0.10;;;0.50;99.90;;;;;;5005729;28;20444;-65
2022/04/04 01:19:41;;;;;;;0.10;0.10;;;0.50;99.90;;;;;;5006144;28;20038;-66
2022/04/04 01:22:10;;;;;;;0.10;0.10;;;0.50;99.90;;;;;;5005097;28;20036;-65
2022/04/04 01:24:38;;;;;;;0.50;0.50;;;0.50;99.90;;;;;;5009353;28;20029;-68
2022/04/04 01:27:04;;;;;;;0.10;0.10;;;0.50;99.90;;;;;;5011175;28;20021;-68
2022/04/04 01:29:30;;;;;;;0.28;0.28;;;0.50;99.90;;;;;;5007534;28;20121;-65
2022/04/04 01:31:56;;;;;;;0.10;0.10;;;0.40;99.90;;;;;;5008860;28;20113;-65
2022/04/04 01:34:22;;;;;;;0.10;0.10;;;0.50;99.90;;;;;;5008317;28;20033;-65
2022/04/04 01:36:49;;;;;;;0.10;0.10;;;0.50;99.90;;;;;;5007844;28;20033;-67
2022/04/04 01:39:15;;;;;;;0.65;0.65;;;0.50;99.90;;;;;;5009152;28;20025;-65
2022/04/04 01:41:41;;;;;;;0.22;0.22;;;0.40;99.90;;;;;;4980710;28;20037;-66
2022/04/04 01:44:07;;;;;;;0.10;0.10;;;0.50;99.90;;;;;;5000142;28;20026;-65
2022/04/04 01:46:32;;;;;;;0.10;0.10;;;0.50;99.90;;;;;;5002331;28;20022;-66
2022/04/04 01:49:01;;;;;;;0.10;0.10;;;0.50;99.90;;;;;;5004640;28;20026;-69
2022/04/04 01:51:28;;;;;;;0.10;0.10;;;0.50;99.90;;;;;;5006757;28;20144;-67
2022/04/04 01:53:54;;;;;;;0.10;0.10;;;0.50;99.90;;;;;;5011066;28;20029;-69
2022/04/04 01:56:21;;;;;;;0.10;0.10;;;0.50;99.90;;;;;;5009751;28;20176;-64
2022/04/04 01:58:47;;;;;;;0.20;0.20;;;0.60;99.90;;;;;;5009555;28;20030;-67
2022/04/04 02:01:14;;;;;;;0.10;0.10;;;0.60;99.90;;;;;;5011363;28;20029;-69
2022/04/04 02:03:40;;;;;;;0.57;0.57;;;0.60;99.90;;;;;;5008141;28;20017;-66
2022/04/04 02:06:06;;;;;;;0.10;0.10;;;0.60;99.90;;;;;;5009949;28;20148;-66
2022/04/04 02:08:32;;;;;;;0.10;0.10;;;0.50;99.90;;;;;;5004619;28;20117;-67
2022/04/04 02:10:59;;;;;;;0.52;0.52;;;0.50;99.90;;;;;;5000968;28;20117;-64
2022/04/04 02:13:25;;;;;;;0.10;0.10;;;0.50;99.90;;;;;;5008084;28;20045;-65
2022/04/04 02:15:56;;;;;;;0.13;0.13;;;0.50;99.90;;;;;;5007527;28;20132;-64
2022/04/04 02:18:22;;;;;;;0.10;0.10;;;0.50;99.90;;;;;;5010667;28;20072;-64
2022/04/04 02:20:49;;;;;;;0.50;0.50;;;0.50;99.90;;;;;;5005230;28;20497;-64
2022/04/04 02:23:18;;;;;;;0.13;0.13;;;0.40;99.90;;;;;;5005133;28;20056;-64
2022/04/04 02:25:45;;;;;;;0.10;0.10;;;0.50;99.90;;;;;;5008679;28;20052;-64
2022/04/04 02:28:11;;;;;;;0.10;0.10;;;0.40;99.90;;;;;;5005383;28;20030;-63
2022/04/04 02:30:37;;;;;;;0.10;0.10;;;0.40;99.90;;;;;;5000856;28;20101;-66
2022/04/04 02:33:02;;;;;;;0.10;0.10;;;0.30;99.90;;;;;;5003823;28;20133;-65
2022/04/04 02:35:29;;;;;;;0.30;0.30;;;0.30;99.90;;;;;;5001599;28;20033;-64
2022/04/04 02:37:55;;;;;;;0.10;0.10;;;0.20;99.90;;;;;;5002014;28;20128;-63
2022/04/04 02:40:20;;;;;;;0.20;0.20;;;0.20;99.90;;;;;;5007645;28;20029;-64
2022/04/04 02:42:47;;;;;;;0.10;0.10;;;0.20;99.90;;;;;;5006730;28;20022;-63
2022/04/04 02:45:13;;;;;;;0.10;0.10;;;0.20;99.90;;;;;;5007483;28;20029;-65
2022/04/04 02:47:39;;;;;;;0.10;0.10;;;0.10;99.90;;;;;;5006003;28;20030;-66
2022/04/04 02:50:05;;;;;;;0.20;0.20;;;0.10;99.90;;;;;;5001057;28;20110;-65
2022/04/04 02:52:31;;;;;;;0.10;0.10;;;0.10;99.90;;;;;;5002643;28;20117;-64
2022/04/04 02:54:57;;;;;;;0.10;0.10;;;0.20;99.90;;;;;;5004516;28;20112;-64
2022/04/04 02:57:23;;;;;;;0.10;0.10;;;0.20;99.90;;;;;;5008603;28;20051;-64
2022/04/04 02:59:48;;;;;;;0.10;0.10;;;0.20;99.90;;;;;;5003488;28;20026;-64
2022/04/04 03:02:14;;;;;;;0.10;0.10;;;0.20;99.90;;;;;;5006704;28;20026;-65
2022/04/04 03:04:42;;;;;;;0.10;0.10;;;0.20;99.90;;;;;;5002788;28;20450;-64
2022/04/04 03:07:09;;;;;;;1.23;1.15;;;0.20;99.90;;;;;;5005126;28;20037;-65
2022/04/04 03:09:37;;;;;;;0.10;0.10;;;0.30;99.90;;;;;;5003106;28;20030;-64
2022/04/04 03:12:04;;;;;;;0.10;0.10;;;0.20;99.90;;;;;;5001337;28;20030;-64
2022/04/04 03:14:30;;;;;;;0.10;0.10;;;0.20;99.90;;;;;;5000410;28;20079;-64
2022/04/04 03:16:56;;;;;;;0.10;0.10;;;0.10;99.90;;;;;;5001683;28;20428;-64
2022/04/04 03:19:22;;;;;;;0.10;0.10;;;0.10;99.90;;;;;;5009960;28;20080;-65
2022/04/04 03:21:47;;;;;;;0.10;0.10;;;0.10;99.90;;;;;;5008380;28;20018;-65
2022/04/04 03:24:13;;;;;;;0.85;0.85;;;0.10;99.90;;;;;;5001836;28;20095;-64
2022/04/04 03:26:39;;;;;;;0.10;0.10;;;0.10;99.90;;;;;;5007682;28;20054;-64
2022/04/04 03:29:04;;;;;;;0.20;0.20;;;0.10;99.90;;;;;;5004227;28;20491;-64
2022/04/04 03:31:30;;;;;;;0.10;0.10;;;0.10;99.90;;;;;;5009844;28;20026;-64
2022/04/04 03:33:55;;;;;;;0.30;0.30;;;0.10;99.90;;;;;;4999287;28;20559;-66
2022/04/04 03:36:21;;;;;;;0.10;0.10;;;0.00;99.90;;;;;;5001322;28;20041;-65
2022/04/04 03:38:47;;;;;;;0.10;0.10;;;-0.60;99.90;;;;;;4999562;28;20405;-64
2022/04/04 03:41:13;;;;;;;0.10;0.10;;;0.00;99.90;;;;;;5002113;28;20050;-64
2022/04/04 03:43:39;;;;;;;0.10;0.10;;;0.00;99.90;;;;;;5006462;28;20112;-65
2022/04/04 03:46:04;;;;;;;0.10;0.10;;;-0.10;99.90;;;;;;5001362;28;20026;-66
2022/04/04 03:48:30;;;;;;;0.10;0.10;;;-0.10;99.90;;;;;;5004200;28;20026;-65
2022/04/04 03:50:56;;;;;;;0.10;0.10;;;0.00;99.90;;;;;;5001001;28;20038;-67
2022/04/04 03:53:22;;;;;;;0.10;0.10;;;0.00;99.90;;;;;;5006091;28;20085;-65
2022/04/04 03:55:48;;;;;;;0.10;0.10;;;0.00;99.90;;;;;;5002091;28;20034;-64
2022/04/04 03:58:14;;;;;;;0.10;0.10;;;-0.20;99.90;;;;;;5007184;28;20037;-66
2022/04/04 04:00:41;;;;;;;0.10;0.10;;;-0.20;99.90;;;;;;5012206;28;20241;-66
2022/04/04 04:03:08;;;;;;;0.10;0.10;;;-0.20;99.90;;;;;;5007987;28;20041;-64
2022/04/04 04:05:35;;;;;;;0.20;0.20;;;-0.10;99.90;;;;;;5010236;28;20490;-63
2022/04/04 04:08:01;;;;;;;0.20;0.20;;;-0.20;99.90;;;;;;5005634;28;20120;-64
2022/04/04 04:10:27;;;;;;;0.10;0.10;;;-0.10;99.90;;;;;;5030278;22;20065;-67
2022/04/04 04:12:53;;;;;;;0.10;0.10;;;-0.20;99.90;;;;;;5029631;28;20115;-66
2022/04/04 04:15:21;;;;;;;0.10;0.10;;;-0.10;99.90;;;;;;5029531;28;20029;-66
2022/04/04 04:17:46;;;;;;;0.20;0.20;;;-0.20;99.90;;;;;;5029756;28;20221;-67
2022/04/04 04:20:29;;;;;;;0.10;0.10;;;-0.30;99.90;;;;;;5022941;28;20477;-66
2022/04/04 04:23:01;;;;;;;0.10;0.10;;;-0.30;99.90;;;;;;5010372;28;20397;-67
2022/04/04 04:25:30;;;;;;;0.10;0.10;;;-0.30;99.90;;;;;;5009250;28;20075;-68
2022/04/04 04:27:57;;;;;;;0.20;0.20;;;-0.40;99.90;;;;;;5008525;28;20018;-68
2022/04/04 04:30:23;;;;;;;0.10;0.10;;;-0.40;99.90;;;;;;4990990;28;20018;-67
2022/04/04 04:32:50;;;;;;;0.10;0.10;;;-0.50;99.90;;;;;;4996160;28;20556;-67
2022/04/04 04:35:17;;;;;;;0.20;0.20;;;-0.50;99.90;;;;;;5007479;28;20493;-66
2022/04/04 04:37:44;;;;;;;0.30;0.30;;;-0.50;99.90;;;;;;5001956;28;20052;-67
2022/04/04 04:40:11;;;;;;;0.10;0.10;;;-0.60;99.90;;;;;;5002684;28;20037;-70
2022/04/04 04:42:37;;;;;;;0.10;0.10;;;-0.60;99.90;;;;;;5004006;28;20025;-67
2022/04/04 04:45:05;;;;;;;0.13;0.13;;;-0.60;99.90;;;;;;5002326;28;20575;-67
2022/04/04 04:47:32;;;;;;;0.10;0.10;;;-0.70;99.90;;;;;;5000643;28;20038;-67
2022/04/04 04:49:59;;;;;;;0.10;0.10;;;-0.70;99.90;;;;;;5002229;28;20028;-67
2022/04/04 04:52:26;;;;;;;0.10;0.10;;;-0.70;99.90;;;;;;5007269;28;20289;-67
2022/04/04 04:54:52;;;;;;;0.10;0.10;;;-0.80;99.90;;;;;;5006134;28;20045;-67
2022/04/04 04:57:19;;;;;;;0.10;0.10;;;-0.80;99.90;;;;;;5007296;28;20092;-68
2022/04/04 04:59:45;;;;;;;0.45;0.45;;;-0.80;99.90;;;;;;5011157;28;20092;-68
2022/04/04 05:02:11;;;;;;;0.10;0.10;;;-0.90;99.90;;;;;;5006098;28;20527;-68
2022/04/04 05:04:37;;;;;;;0.10;0.10;;;-0.80;99.90;;;;;;5006155;28;20093;-67
2022/04/04 05:07:02;;;;;;;0.10;0.10;;;-0.80;99.90;;;;;;5012511;28;20465;-67
2022/04/04 05:09:28;;;;;;;0.10;0.10;;;-0.80;99.90;;;;;;5008192;28;20042;-67
2022/04/04 05:11:53;;;;;;;0.10;0.10;;;-0.80;99.90;;;;;;5007342;28;20037;-70
2022/04/04 05:14:19;;;;;;;0.10;0.10;;;-0.80;99.90;;;;;;5003620;28;20034;-69
2022/04/04 05:16:46;;;;;;;0.10;0.10;;;-0.80;99.90;;;;;;5005627;28;20022;-67
2022/04/04 05:19:13;;;;;;;0.10;0.10;;;-0.80;99.90;;;;;;5004699;28;20504;-68
2022/04/04 05:21:40;;;;;;;0.20;0.20;;;-0.80;99.90;;;;;;5004093;28;20408;-68
2022/04/04 05:26:56;;;;;;;0.20;0.20;;;-0.80;99.90;;;;;;5916789;22;20053;-69
2022/04/04 05:29:26;;;;;;;0.10;0.10;;;-0.60;99.90;;;;;;5021201;28;20534;-70
2022/04/04 05:31:52;;;;;;;0.10;0.10;;;-0.20;99.90;;;;;;5013423;28;20054;-69
2022/04/04 05:34:18;;;;;;;0.10;0.10;;;-0.20;99.90;;;;;;5018089;28;20017;-68
2022/04/04 05:36:43;;;;;;;0.10;0.10;;;-0.40;99.90;;;;;;5012539;28;20502;-67
2022/04/04 05:39:09;;;;;;;0.20;0.20;;;-0.50;99.90;;;;;;5005553;28;20026;-69
2022/04/04 05:41:36;;;;;;;0.20;0.20;;;-0.50;99.90;;;;;;5003541;28;20117;-68
2022/04/04 05:44:03;;;;;;;0.10;0.10;;;-0.60;99.90;;;;;;5004988;28;20022;-68
2022/04/04 05:46:28;;;;;;;6.80;6.15;;;-0.50;99.90;;;;;;5006618;28;20540;-70
2022/04/04 05:48:54;;;;;;;0.10;0.10;;;-0.50;99.90;;;;;;5040186;22;20184;-66
2022/04/04 05:51:20;;;;;;;0.20;0.20;;;-0.40;99.90;;;;;;5031977;28;20045;-65
2022/04/04 05:53:46;;;;;;;0.10;0.10;;;-0.40;99.90;;;;;;5038508;28;20032;-65
2022/04/04 05:56:12;;;;;;;0.10;0.10;;;-0.40;99.90;;;;;;5037633;28;20113;-65
2022/04/04 05:58:38;;;;;;;0.10;0.10;;;-0.40;99.90;;;;;;5021685;28;20564;-68
2022/04/04 06:01:04;;;;;;;0.10;0.10;;;-0.30;99.90;;;;;;5020454;28;20477;-66
2022/04/04 06:03:32;;;;;;;0.20;0.20;;;-0.30;99.90;;;;;;5007440;28;20021;-65
2022/04/04 06:05:58;;;;;;;0.10;0.10;;;-0.30;99.90;;;;;;5011175;28;20030;-66
2022/04/04 06:08:23;;;;;;;0.10;0.10;;;-0.20;99.90;;;;;;5012374;28;20416;-66
2022/04/04 06:10:49;;;;;;;0.10;0.10;;;-0.10;99.90;;;;;;5017499;28;20071;-68
2022/04/04 06:13:19;;;;;;;0.45;0.45;;;-0.10;99.90;;;;;;5014651;28;20473;-67
2022/04/04 06:15:46;;;;;;;0.20;0.20;;;-0.10;99.90;;;;;;5017166;28;20056;-65
2022/04/04 06:18:13;;;;;;;0.10;0.10;;;0.00;99.90;;;;;;5018771;28;20104;-66
2022/04/04 06:20:40;;;;;;;0.10;0.10;;;0.00;99.90;;;;;;5007918;28;20392;-67
2022/04/04 06:23:06;;;;;;;0.20;0.20;;;0.00;99.90;;;;;;5008144;28;20031;-67
2022/04/04 06:25:32;;;;;;;0.10;0.10;;;0.10;99.90;;;;;;5012178;28;20025;-66
2022/04/04 06:27:58;;;;;;;0.10;0.10;;;0.10;99.90;;;;;;5009505;28;20033;-66
2022/04/04 06:30:25;;;;;;;0.10;0.10;;;0.10;99.90;;;;;;4996281;28;20098;-67
2022/04/04 06:32:51;;;;;;;0.10;0.10;;;0.20;99.90;;;;;;5007890;28;20065;-66
2022/04/04 06:35:17;;;;;;;0.10;0.10;;;0.30;99.90;;;;;;5011356;28;20052;-67
2022/04/04 06:37:45;;;;;;;0.45;0.45;;;0.40;99.90;;;;;;5009167;28;20073;-67
2022/04/04 06:40:12;;;;;;;0.13;0.13;;;0.50;99.90;;;;;;5009494;28;20056;-66
2022/04/04 06:42:40;;;;;;;0.10;0.10;;;0.60;99.90;;;;;;5009348;28;20030;-68
2022/04/04 06:45:06;;;;;;;0.10;0.10;;;0.60;99.90;;;;;;5004779;28;20023;-70
2022/04/04 06:47:32;;;;;;;0.20;0.20;;;0.70;99.90;;;;;;5007681;28;20065;-67
2022/04/04 06:49:59;;;;;;;0.10;0.10;;;0.80;99.90;;;;;;5011330;28;20065;-68
2022/04/04 06:52:25;;;;;;;0.10;0.10;;;0.80;99.90;;;;;;5010357;28;20053;-67
2022/04/04 06:54:51;;;;;;;0.10;0.10;;;0.90;99.90;;;;;;5003933;28;20084;-66
2022/04/04 06:57:18;;;;;;;0.10;0.10;;;1.00;99.90;;;;;;5011401;28;20083;-67
2022/04/04 06:59:43;;;;;;;0.10;0.10;;;1.10;99.90;;;;;;5010444;28;20029;-66
2022/04/04 07:02:09;;;;;;;0.10;0.10;;;1.20;99.90;;;;;;5006829;28;20026;-67
2022/04/04 07:04:37;;;;;;;0.10;0.10;;;1.20;99.90;;;;;;5007557;28;20030;-67
2022/04/04 07:07:04;;;;;;;0.30;0.30;;;1.20;99.90;;;;;;5011933;28;20030;-66
2022/04/04 07:09:29;;;;;;;0.10;0.10;;;1.30;99.90;;;;;;5026466;28;20048;-67
2022/04/04 07:11:55;;;;;;;0.10;0.10;;;1.40;99.90;;;;;;5020739;28;20580;-67
2022/04/04 07:14:21;;;;;;;0.20;0.20;;;1.50;99.90;;;;;;5010344;28;20034;-66
2022/04/04 07:16:51;;;;;;;0.10;0.10;;;1.60;99.90;;;;;;5006792;28;20038;-66
2022/04/04 07:19:17;;;;;;;0.17;0.17;;;1.80;99.90;;;;;;5003302;28;20033;-67
2022/04/04 07:21:43;;;;;;;0.13;0.13;;;2.00;99.90;;;;;;5005560;28;20037;-66
2022/04/04 07:24:09;;;;;;;0.10;0.10;;;2.20;99.90;;;;;;5006161;28;20061;-66
2022/04/04 07:26:35;;;;;;;0.10;0.10;;;2.30;99.90;;;;;;4999441;28;20026;-66
2022/04/04 07:29:01;;;;;;;0.10;0.10;;;2.40;99.90;;;;;;5011205;28;20030;-67
2022/04/04 07:31:27;;;;;;;0.10;0.10;;;2.40;99.90;;;;;;5005704;28;20436;-67
2022/04/04 07:33:52;;;;;;;0.20;0.20;;;2.50;99.90;;;;;;5007324;28;20092;-66
2022/04/04 07:36:18;;;;;;;0.10;0.10;;;2.60;99.90;;;;;;5010719;28;20092;-67
2022/04/04 07:38:44;;;;;;;0.10;0.10;;;2.50;99.90;;;;;;5006040;28;20164;-68
2022/04/04 07:41:09;;;;;;;0.10;0.10;;;2.50;99.90;;;;;;5009640;28;20025;-67
2022/04/04 07:43:35;;;;;;;0.10;0.10;;;2.60;99.90;;;;;;5010698;28;20018;-67
2022/04/04 07:46:01;;;;;;;0.10;0.10;;;2.60;99.90;;;;;;5010466;28;20028;-67
2022/04/04 07:48:27;;;;;;;0.10;0.10;;;2.70;99.90;;;;;;5000641;28;20034;-66
2022/04/04 07:50:53;;;;;;;0.10;0.10;;;2.70;99.90;;;;;;5007925;28;20072;-66
2022/04/04 07:53:19;;;;;;;0.13;0.13;;;2.80;99.90;;;;;;5010980;28;20392;-67
2022/04/04 07:55:45;;;;;;;0.20;0.20;;;2.90;99.90;;;;;;5004413;28;20060;-67
2022/04/04 07:58:11;;;;;;;0.10;0.10;;;2.90;99.90;;;;;;5009263;28;20058;-68
2022/04/04 08:00:36;;;;;;;0.10;0.10;;;3.00;99.90;;;;;;5010889;28;20494;-66
2022/04/04 08:03:04;;;;;;;0.10;0.10;;;3.20;99.90;;;;;;5007339;28;20418;-66
2022/04/04 08:05:30;;;;;;;0.20;0.20;;;3.20;99.90;;;;;;5018424;28;20030;-67
2022/04/04 08:07:56;;;;;;;0.10;0.10;;;3.30;99.90;;;;;;5012879;28;20025;-65
2022/04/04 08:10:22;;;;;;;3.20;2.28;;;3.40;99.90;;;;;;5017374;28;20018;-67
2022/04/04 08:12:50;;;;;;;0.10;0.10;;;3.50;99.90;;;;;;5009696;28;20033;-67
2022/04/04 08:15:16;;;;;;;0.10;0.10;;;3.60;99.90;;;;;;5008405;28;20022;-68
2022/04/04 08:17:42;;;;;;;0.10;0.10;;;3.70;99.90;;;;;;5007318;28;20036;-67
2022/04/04 08:20:08;;;;;;;0.10;0.10;;;3.80;99.90;;;;;;5009783;28;20038;-67
2022/04/04 08:22:42;;;;;;;0.13;0.13;;;3.90;99.90;;;;;;5008396;28;20062;-67
2022/04/04 08:25:12;;;;;;;0.10;0.10;;;3.90;99.90;;;;;;5009749;28;20018;-66
2022/04/04 08:27:38;;;;;;;0.15;0.15;;;4.10;99.80;;;;;;5010063;28;20358;-66
2022/04/04 08:30:06;;;;;;;0.10;0.10;;;4.00;99.30;;;;;;5009876;28;20064;-67
2022/04/04 08:32:36;;;;;;;0.20;0.20;;;4.10;98.70;;;;;;5004201;28;20018;-67
2022/04/04 08:35:06;;;;;;;0.47;0.47;;;4.20;97.80;;;;;;5002948;28;20022;-66
2022/04/04 08:37:33;;;;;;;0.10;0.10;;;4.40;97.50;;;;;;5009635;28;20022;-67
2022/04/04 08:39:59;;;;;;;0.20;0.20;;;4.40;95.10;;;;;;5009235;28;20534;-67
2022/04/04 08:42:27;;;;;;;0.10;0.10;;;4.30;94.00;;;;;;5007153;28;20929;-67
2022/04/04 08:44:57;;;;;;;0.25;0.25;;;4.40;93.30;;;;;;5007486;28;20038;-68
2022/04/04 08:47:24;;;;;;;0.10;0.10;;;4.50;92.40;;;;;;5009297;28;20024;-67
2022/04/04 08:49:54;;;;;;;0.10;0.10;;;4.60;92.90;;;;;;5007084;28;20067;-67
2022/04/04 08:52:21;;;;;;;0.10;0.10;;;4.70;91.80;;;;;;5008904;28;20029;-67
2022/04/04 08:54:47;;;;;;;0.20;0.20;;;4.80;91.70;;;;;;5009187;28;20144;-66
2022/04/04 08:57:13;;;;;;;0.13;0.13;;;4.50;90.70;;;;;;5000437;28;20065;-66
2022/04/04 08:59:39;;;;;;;1.25;1.20;;;5.00;90.30;;;;;;5009853;28;20041;-68
2022/04/04 09:02:05;;;;;;;0.10;0.10;;;5.20;88.30;;;;;;5014313;28;20026;-67
2022/04/04 09:04:33;;;;;;;0.10;0.10;;;5.10;86.10;;;;;;5009565;28;20031;-67
2022/04/04 09:07:04;;;;;;;0.13;0.13;;;5.10;85.50;;;;;;5017063;28;20098;-66
2022/04/04 09:09:44;;;;;;;0.10;0.10;;;5.10;86.00;;;;;;5009043;28;20026;-67
2022/04/04 09:12:11;;;;;;;0.10;0.10;;;5.10;80.50;;;;;;5009382;28;20037;-68
2022/04/04 09:14:47;;;;;;;0.10;0.10;;;5.00;74.50;;;;;;5003761;28;20083;-66
2022/04/04 09:17:14;;;;;;;0.10;0.10;;;4.90;73.60;;;;;;4989851;28;20109;-66
2022/04/04 09:19:40;;;;;;;0.10;0.10;;;4.90;71.80;;;;;;4992832;28;20105;-67
2022/04/04 09:22:12;;;;;;;0.10;0.10;;;5.00;72.20;;;;;;5009236;28;20022;-69
2022/04/04 09:24:55;;;;;;;0.10;0.10;;;5.10;72.20;;;;;;5005498;28;20026;-68
2022/04/04 09:27:25;;;;;;;0.10;0.10;;;5.30;67.40;;;;;;4990650;28;20045;-72
2022/04/04 09:29:55;;;;;;;0.10;0.10;;;5.10;68.90;;;;;;5003572;28;20042;-67
2022/04/04 09:32:21;;;;;;;0.20;0.20;;;5.30;69.80;;;;;;5001482;28;20081;-70
2022/04/04 09:35:02;;;;;;;0.10;0.10;;;5.40;67.20;;;;;;5008832;28;20068;-66
2022/04/04 09:37:33;;;;;;;0.10;0.10;;;5.60;67.70;;;;;;5006515;28;20022;-68
2022/04/04 09:40:13;;;;;;;0.10;0.10;;;5.70;65.80;;;;;;5005098;28;20030;-71
2022/04/04 09:42:39;;;;;;;0.65;0.65;;;5.90;66.20;;;;;;5001501;28;20058;-66
2022/04/04 09:45:10;;;;;;;0.10;0.10;;;5.80;65.80;;;;;;5013015;28;20447;-67
2022/04/04 09:47:59;;;;;;;0.10;0.10;;;5.90;66.10;;;;;;5012690;28;20068;-68
2022/04/04 09:50:36;;;;;;;0.10;0.10;;;6.00;65.00;;;;;;5009419;28;20080;-67
2022/04/04 09:53:03;;;;;;;0.10;0.10;;;6.00;64.50;;;;;;5011422;28;20109;-67
2022/04/04 09:55:34;;;;;;;0.10;0.10;;;6.10;64.30;;;;;;5011990;28;20033;-67
2022/04/04 09:58:02;;;;;;;0.10;0.10;;;6.10;65.50;;;;;;5015859;28;20108;-67
2022/04/04 10:00:28;;;;;;;0.10;0.10;;;6.00;65.30;;;;;;5013902;28;20068;-68
2022/04/04 10:02:56;;;;;;;0.10;0.10;;;6.20;66.00;;;;;;5011442;28;20400;-68
2022/04/04 10:05:24;;;;;;;0.15;0.15;;;6.10;66.10;;;;;;5008660;28;20388;-67
2022/04/04 10:07:52;;;;;;;0.10;0.10;;;6.20;66.80;;;;;;5011094;28;20057;-68
2022/04/04 10:10:18;;;;;;;0.10;0.10;;;6.00;66.40;;;;;;5017217;28;20017;-66
2022/04/04 10:12:46;;;;;;;0.10;0.10;;;5.90;68.10;;;;;;5016831;28;20057;-67
2022/04/04 10:15:12;;;;;;;0.10;0.10;;;5.90;68.70;;;;;;5013223;28;20046;-68
2022/04/04 10:17:39;;;;;;;0.10;0.10;;;6.00;69.00;;;;;;5011027;28;20025;-69
2022/04/04 10:20:06;;;;;;;0.10;0.10;;;6.20;70.20;;;;;;5010742;28;20033;-67
2022/04/04 10:22:33;;;;;;;0.10;0.10;;;6.40;70.50;;;;;;5007317;28;20100;-67
2022/04/04 10:25:02;;;;;;;0.10;0.10;;;6.30;70.80;;;;;;5011545;28;20018;-67
2022/04/04 10:27:29;;;;;;;0.10;0.10;;;6.40;70.50;;;;;;5012097;28;20026;-67
2022/04/04 10:30:08;;;;;;;0.10;0.10;;;6.20;71.50;;;;;;5011346;28;20057;-73
2022/04/04 10:32:34;;;;;;;0.10;0.10;;;6.30;83.90;;;;;;5009755;28;20053;-65
2022/04/04 10:35:12;;;;;;;0.10;0.10;;;6.60;74.00;;;;;;5011914;28;20481;-66
2022/04/04 10:37:44;;;;;;;0.68;0.68;;;6.50;73.00;;;;;;5006284;28;20485;-66
2022/04/04 10:40:23;;;;;;;0.10;0.10;;;6.50;73.00;;;;;;5009731;28;20026;-67
2022/04/04 10:43:12;;;;;;;0.10;0.10;;;6.50;73.70;;;;;;5012107;28;20292;-70
2022/04/04 10:45:56;;;;;;;0.10;0.10;;;6.90;75.40;;;;;;5011844;28;20017;-68
2022/04/04 10:48:28;;;;;;;0.10;0.10;;;7.10;72.60;;;;;;5009100;28;20037;-68
2022/04/04 10:50:54;;;;;;;0.20;0.20;;;7.20;72.50;;;;;;5009420;28;20048;-68
2022/04/04 10:53:57;;;;;;;0.10;0.10;;;7.30;71.00;;;;;;5015625;28;20789;-67
2022/04/04 10:56:28;;;;;;;0.10;0.10;;;7.30;69.70;;;;;;4965113;28;20208;-67
2022/04/04 10:59:14;;;;;;;0.10;0.10;;;7.40;68.90;;;;;;4999047;28;20442;-66
2022/04/04 11:01:49;;;;;;;0.10;0.10;;;7.60;70.00;;;;;;4993004;28;20039;-71
2022/04/04 11:04:34;;;;;;;0.10;0.10;;;7.70;68.30;;;;;;5004137;28;20022;-68
2022/04/04 11:10:08;;;;;;;0.10;0.10;;;7.60;64.50;;;;;;5011099;28;20040;-67
2022/04/04 11:12:57;;;;;;;0.10;0.10;;;7.60;63.70;;;;;;5011022;28;20114;-66
2022/04/04 11:15:42;;;;;;;0.30;0.30;;;7.50;61.90;;;;;;5006777;28;20018;-70
2022/04/04 11:18:08;;;;;;;0.10;0.10;;;7.40;64.20;;;;;;5008788;28;20030;-68
2022/04/04 11:20:36;;;;;;;0.10;0.10;;;7.40;64.20;;;;;;5010778;28;20101;-68
2022/04/04 11:23:09;;;;;;;0.45;0.45;;;7.50;63.20;;;;;;5006871;28;20046;-67
2022/04/04 11:25:38;;;;;;;0.10;0.10;;;7.50;64.50;;;;;;5005490;28;20026;-66
2022/04/04 11:28:05;;;;;;;0.10;0.10;;;7.80;64.90;;;;;;5005629;28;20531;-68
2022/04/04 11:30:31;;;;;;;0.10;0.10;;;7.80;63.70;;;;;;5008244;28;20099;-65
2022/04/04 11:32:59;;;;;;;0.90;0.90;;;7.80;63.20;;;;;;5001877;28;20033;-68
2022/04/04 11:35:34;;;;;;;0.10;0.10;;;7.60;63.00;;;;;;5001080;28;20104;-66
2022/04/04 11:38:07;;;;;;;0.10;0.10;;;7.60;63.80;;;;;;5002014;28;20018;-66
2022/04/04 11:40:37;;;;;;;;;;;7.60;64.80;;;;;;5007394;28;20088;-67
2022/04/04 11:43:08;;;;;;;0.20;0.20;;;7.50;65.60;;;;;;5001709;28;20541;-66
2022/04/04 11:45:39;;;;;;;0.10;0.10;;;7.60;65.50;;;;;;5007905;28;20034;-66
2022/04/04 11:48:14;;;;;;;1.10;1.10;;;7.60;65.40;;;;;;5022463;22;20371;-70
2022/04/04 11:50:40;;;;;;;0.10;0.10;;;7.70;64.90;;;;;;5025489;28;20029;-69
2022/04/04 11:53:14;;;;;;;0.10;0.10;;;7.70;64.90;;;;;;5022565;28;20033;-72
2022/04/04 11:55:41;;;;;;;0.10;0.10;;;7.70;65.90;;;;;;5023763;28;20025;-69
2022/04/04 11:58:12;;;;;;;0.10;0.10;;;8.00;64.90;;;;;;5021005;28;20036;-68
2022/04/04 12:00:43;;;;;;;0.10;0.10;;;8.10;63.70;;;;;;5015754;28;20021;-70
2022/04/04 12:03:16;;;;;;;0.10;0.10;;;8.10;63.80;;;;;;5010587;28;20105;-71
2022/04/04 12:05:43;;;;;;;0.10;0.10;;;8.00;63.80;;;;;;5012985;28;20029;-69
2022/04/04 12:08:10;;;;;;;0.10;0.10;;;8.00;64.10;;;;;;5013217;28;20030;-70
2022/04/04 12:10:37;;;;;;;0.10;0.10;;;8.00;62.50;;;;;;5016356;28;20025;-71
2022/04/04 12:13:05;;;;;;;0.10;0.10;;;8.00;62.70;;;;;;5008827;28;20017;-70
2022/04/04 12:15:45;;;;;;;0.10;0.10;;;7.80;62.50;;;;;;5012449;28;20100;-71
2022/04/04 12:18:23;;;;;;;0.10;0.10;;;8.00;63.80;;;;;;5013601;28;20485;-71
2022/04/04 12:20:50;;;;;;;0.10;0.10;;;8.10;62.50;;;;;;5008959;28;20052;-69
2022/04/04 12:26:07;;;;;;;0.10;0.10;;;8.10;63.60;;;;;;5015322;28;20032;-69
2022/04/04 12:28:38;;;;;;;0.10;0.10;;;8.20;62.80;;;;;;5015151;28;20030;-69
2022/04/04 12:31:15;;;;;;;0.10;0.10;;;8.20;62.70;;;;;;5011555;28;20025;-70
2022/04/04 12:33:42;;;;;;;0.10;0.10;;;8.30;63.40;;;;;;5014514;28;20591;-69
2022/04/04 12:36:09;;;;;;;0.10;0.10;;;8.20;62.70;;;;;;5018200;28;20048;-69
2022/04/04 12:38:37;;;;;;;0.10;0.10;;;8.20;62.70;;;;;;5016539;28;20062;-68
2022/04/04 12:41:15;;;;;;;0.10;0.10;;;8.30;62.80;;;;;;5013888;28;20017;-69
2022/04/04 12:43:46;;;;;;;0.10;0.10;;;8.10;62.60;;;;;;5016366;28;20029;-69
2022/04/04 12:46:24;;;;;;;0.10;0.10;;;8.20;63.20;;;;;;5009094;28;20022;-70
2022/04/04 12:48:49;;;;;;;0.10;0.10;;;8.70;63.70;;;;;;5013081;28;20310;-69
2022/04/04 12:51:30;;;;;;;0.10;0.10;;;9.30;60.60;;;;;;5012698;28;20527;-69
2022/04/04 12:53:58;;;;;;;0.10;0.10;;;10.30;58.60;;;;;;5015601;28;20124;-69
2022/04/04 12:56:26;;;;;;;0.10;0.10;;;10.30;56.70;;;;;;5013225;28;20504;-70
2022/04/04 12:59:08;;;;;;;0.10;0.10;;;10.30;57.10;;;;;;5012682;28;20029;-69
2022/04/04 13:01:35;;;;;;;0.10;0.10;;;11.00;56.00;;;;;;5013996;28;20022;-69
2022/04/04 13:04:07;;;;;;;0.10;0.10;;;10.60;55.20;;;;;;5010454;28;20048;-71
2022/04/04 13:06:33;;;;;;;0.10;0.10;;;10.60;55.60;;;;;;5010995;28;20053;-69
2022/04/04 13:09:03;;;;;;;0.10;0.10;;;10.40;55.60;;;;;;5014348;28;20022;-70